Poeta Lopez Anglada — EADS — position and weather

sailwx.info

Track history (hours):
 
Tides and Currents Weather Stations Pressure Air Temp Water Temp Dewpoint Dewpoint Depression Visibility Wind Speed Wind Dir Waves Ship Positions

Poeta Lopez Anglada

Last reported at 2018-Jun-19 00:55 UTC. Time now 2018-Jun-20 20:56 UTC.
Position N 36°08' W 005°26'.

Length 134 m; draft 4.5 m.

Type: Passenger vessel. MMSI: 225409000.

Date/timePositionNaut miles runAvg speedWind from/ knotsBaromVisibWave heightAir tempDewpointWater temp
2018-Jun-19 00:55N 36°08' W 005°26'1 2.4
2018-Jun-19 00:29N 36°09' W 005°26'612.3
2018-Jun-19 00:00N 36°04' W 005°23'9 3.9
2018-Jun-18 21:35N 35°57' W 005°30'213.7
2018-Jun-18 21:27N 35°58' W 005°29'614.1
2018-Jun-18 21:00N 36°02' W 005°23'6 4.1
2018-Jun-18 19:32N 36°08' W 005°26'0 4.5
2018-Jun-18 19:30N 36°08' W 005°26'3 6.7
2018-Jun-18 19:00N 36°06' W 005°23'917.9
2018-Jun-18 18:30N 35°58' W 005°27'2 0.7
2018-Jun-18 15:12N 35°57' W 005°29'416.4
2018-Jun-18 14:59N 35°60' W 005°26'7 2.4
2018-Jun-18 12:13N 36°06' W 005°24'417.2
2018-Jun-18 12:00N 36°02' W 005°24'7 2.3
2018-Jun-18 09:10N 35°57' W 005°29'215.6
2018-Jun-18 09:01N 35°59' W 005°28'7 2.5
2018-Jun-18 06:03N 36°06' W 005°23'118.2
2018-Jun-18 06:00N 36°05' W 005°23'917.5
2018-Jun-18 05:30N 35°57' W 005°28'5 2.5
2018-Jun-18 03:37N 35°53' W 005°31'315.5
2018-Jun-18 03:25N 35°56' W 005°30'716.9
2018-Jun-18 03:00N 36°02' W 005°25'6 4.9
2018-Jun-18 01:47N 36°08' W 005°26'1 5.1
2018-Jun-18 01:29N 36°09' W 005°25'714.9
2018-Jun-18 01:01N 36°02' W 005°24'1017.1
2018-Jun-18 00:27N 35°54' W 005°31'3 1.1
2018-Jun-17 21:47N 35°57' W 005°29'412.8
2018-Jun-17 21:30N 35°59' W 005°26'612.7
2018-Jun-17 21:00N 36°05' W 005°23'4 1.4
2018-Jun-17 18:24N 36°08' W 005°26'3 5.6
2018-Jun-17 17:51N 36°06' W 005°23'618.3
2018-Jun-17 17:30N 35°60' W 005°25'5 2.4
2018-Jun-17 15:29N 35°56' W 005°29'816.7
2018-Jun-17 15:00N 36°03' W 005°24'5 9.6
2018-Jun-17 14:30N 36°08' W 005°26'0 0.1
2018-Jun-17 12:52N 36°08' W 005°26'1 4.1
2018-Jun-17 12:30N 36°09' W 005°25'816.3
2018-Jun-17 12:00N 36°01' W 005°24'6 2.3
2018-Jun-17 09:14N 35°57' W 005°29'415.8
2018-Jun-17 09:00N 35°60' W 005°27'816.1
2018-Jun-17 08:30N 36°07' W 005°24'2 0.9
2018-Jun-17 06:33N 36°08' W 005°26'0 8.1
2018-Jun-17 06:30N 36°08' W 005°26'611.4
2018-Jun-17 06:00N 36°03' W 005°23'816.9
2018-Jun-17 05:30N 35°56' W 005°28'3 1.8
2018-Jun-17 03:35N 35°54' W 005°31'317.5
2018-Jun-17 03:25N 35°57' W 005°31'716.6
2018-Jun-17 03:00N 36°02' W 005°25'714.8
2018-Jun-17 02:31N 36°09' W 005°26'1 0.8
2018-Jun-17 01:07N 36°08' W 005°26'0 3.0
2018-Jun-17 01:00N 36°08' W 005°26'2 3.2
2018-Jun-17 00:30N 36°09' W 005°24'714.7
2018-Jun-17 00:00N 36°01' W 005°25'917.7
2018-Jun-16 23:30N 35°54' W 005°31'1 0.4
2018-Jun-16 21:45N 35°54' W 005°31'2 6.3
2018-Jun-16 21:29N 35°56' W 005°30'714.0
2018-Jun-16 21:00N 36°01' W 005°25'815.3
2018-Jun-16 20:30N 36°09' W 005°25'1 1.0
2018-Jun-16 19:17N 36°08' W 005°26'2 4.1
2018-Jun-16 18:53N 36°08' W 005°24'717.1
2018-Jun-16 18:30N 36°02' W 005°24'10 3.3
2018-Jun-16 15:34N 35°54' W 005°31'3 8.5
2018-Jun-16 15:16N 35°56' W 005°30'416.7
2018-Jun-16 15:00N 35°60' W 005°27'6 2.2
2018-Jun-16 12:12N 36°05' W 005°23'316.8
2018-Jun-16 12:00N 36°02' W 005°24'7 3.2
2018-Jun-16 09:52N 35°56' W 005°29'615.4
2018-Jun-16 09:29N 36°02' W 005°25'6 4.6
2018-Jun-16 08:04N 36°08' W 005°26'2 5.9
2018-Jun-16 07:47N 36°08' W 005°24'517.8
2018-Jun-16 07:30N 36°02' W 005°24'10 5.4
2018-Jun-16 05:43N 35°55' W 005°30'316.6
2018-Jun-16 05:31N 35°58' W 005°29'815.8
2018-Jun-16 05:01N 36°05' W 005°24'4 7.8
2018-Jun-16 04:30N 36°08' W 005°26'0 0.5
2018-Jun-16 03:59N 36°08' W 005°26'2 3.7
2018-Jun-16 03:29N 36°09' W 005°24'1 2.0
2018-Jun-16 03:01N 36°08' W 005°24'3 5.7
2018-Jun-16 02:30N 36°05' W 005°23'817.0
2018-Jun-16 02:00N 35°57' W 005°27'3 1.9
2018-Jun-16 00:13N 35°56' W 005°31'416.3
2018-Jun-16 00:00N 35°59' W 005°28'816.0
2018-Jun-15 23:30N 36°06' W 005°24'3 5.4
2018-Jun-15 23:00N 36°08' W 005°26'0 0.1
2018-Jun-15 22:19N 36°08' W 005°26'0 0.0
2018-Jun-15 22:00N 36°08' W 005°26'1 1.2
2018-Jun-15 21:31N 36°08' W 005°26'1 2.9
2018-Jun-15 21:00N 36°08' W 005°24'1 1.5
2018-Jun-15 20:30N 36°08' W 005°24'4 7.7
2018-Jun-15 20:00N 36°04' W 005°24'1019.6
2018-Jun-15 19:29N 35°55' W 005°30'2 0.8
2018-Jun-15 17:33N 35°54' W 005°31'3 2.2
2018-Jun-15 15:56N 35°57' W 005°29'614.6
2018-Jun-15 15:29N 36°02' W 005°23'7 3.4
2018-Jun-15 13:29N 36°08' W 005°24'817.2
2018-Jun-15 13:00N 36°00' W 005°24'6 1.6
2018-Jun-15 09:28N 35°56' W 005°30'715.5
2018-Jun-15 09:01N 36°02' W 005°25'4 1.4
2018-Jun-15 06:23N 36°06' W 005°23'717.8
2018-Jun-15 06:00N 35°59' W 005°25'7 3.0
2018-Jun-15 03:32N 35°54' W 005°31'2 8.4
2018-Jun-15 03:14N 35°56' W 005°30'415.9
2018-Jun-15 03:01N 35°59' W 005°28'714.8
2018-Jun-15 02:31N 36°06' W 005°24'3 5.3
2018-Jun-15 02:01N 36°08' W 005°26'0 0.0
2018-Jun-15 01:30N 36°08' W 005°26'0 0.0
2018-Jun-15 01:00N 36°08' W 005°26'2 3.5
2018-Jun-15 00:31N 36°08' W 005°24'917.5
2018-Jun-15 00:00N 35°60' W 005°24'5 1.7
2018-Jun-14 21:21N 35°57' W 005°29'514.5
2018-Jun-14 21:00N 36°01' W 005°25'714.4
2018-Jun-14 20:30N 36°09' W 005°25'1 2.6
2018-Jun-14 20:00N 36°08' W 005°26'0 0.0
2018-Jun-14 19:29N 36°08' W 005°26'0 0.4
2018-Jun-14 18:42N 36°08' W 005°26'2 5.5
2018-Jun-14 18:18N 36°07' W 005°23'414.1
2018-Jun-14 18:00N 36°03' W 005°23'8 3.1
2018-Jun-14 15:19N 35°57' W 005°29'514.8
2018-Jun-14 15:00N 36°00' W 005°26'714.2
2018-Jun-14 14:31N 36°07' W 005°24'2 0.9
2018-Jun-14 12:37N 36°08' W 005°26'3 7.6
2018-Jun-14 12:14N 36°06' W 005°24'417.7
2018-Jun-14 12:01N 36°02' W 005°24'6 2.3
2018-Jun-14 09:18N 35°57' W 005°29'414.7
2018-Jun-14 09:00N 36°01' W 005°26'4 1.4
2018-Jun-14 06:14N 36°03' W 005°22'418.6
2018-Jun-14 06:00N 35°59' W 005°24'5 2.4
2018-Jun-14 03:44N 35°56' W 005°30'415.1
2018-Jun-14 03:30N 35°59' W 005°28'714.6
2018-Jun-14 03:00N 36°06' W 005°23'3 6.2
2018-Jun-14 02:30N 36°08' W 005°26'0 0.0
2018-Jun-14 02:00N 36°08' W 005°26'1 2.6
2018-Jun-14 01:30N 36°09' W 005°25'613.3
2018-Jun-14 01:00N 36°03' W 005°24'8 2.7
2018-Jun-13 21:55N 35°56' W 005°31'614.6
2018-Jun-13 21:30N 36°01' W 005°26'714.9
2018-Jun-13 21:00N 36°08' W 005°24'1 0.5
2018-Jun-13 18:22N 36°07' W 005°24'718.5
2018-Jun-13 18:00N 36°00' W 005°24'5 2.2
2018-Jun-13 15:36N 35°57' W 005°29'115.1
2018-Jun-13 15:30N 35°58' W 005°29'713.8
2018-Jun-13 15:00N 36°04' W 005°24'4 1.8
2018-Jun-13 12:36N 36°08' W 005°26'0 1.6
2018-Jun-13 12:31N 36°08' W 005°26'4 8.4
2018-Jun-13 12:01N 36°04' W 005°24'9 3.2
2018-Jun-13 09:19N 35°57' W 005°29'614.9
2018-Jun-13 08:53N 36°02' W 005°25'5 1.9
2018-Jun-13 06:07N 36°08' W 005°24'217.2
2018-Jun-13 06:00N 36°06' W 005°23'918.6
2018-Jun-13 05:30N 35°57' W 005°27'5 3.8
2018-Jun-13 04:08N 35°53' W 005°31'1 4.8
2018-Jun-13 03:56N 35°54' W 005°31'1 2.4
2018-Jun-13 03:28N 35°55' W 005°30'613.7
2018-Jun-13 03:01N 35°60' W 005°26'714.1
2018-Jun-13 02:30N 36°07' W 005°24'2 4.3
2018-Jun-13 01:59N 36°08' W 005°26'0 0.0
2018-Jun-13 01:30N 36°08' W 005°26'0 0.1
2018-Jun-13 01:00N 36°08' W 005°26'2 3.6
2018-Jun-13 00:30N 36°08' W 005°24'817.3
2018-Jun-13 00:00N 35°60' W 005°25'5 1.9
2018-Jun-12 21:22N 35°56' W 005°30'515.2
2018-Jun-12 21:00N 36°01' W 005°26'815.3
2018-Jun-12 20:30N 36°08' W 005°25'3 1.4
2018-Jun-12 18:18N 36°05' W 005°23'619.5
2018-Jun-12 18:00N 35°60' W 005°25'4 1.8
2018-Jun-12 15:45N 35°57' W 005°29'313.6
2018-Jun-12 15:30N 36°00' W 005°27'5 1.8
2018-Jun-12 12:54N 36°04' W 005°24'717.8
2018-Jun-12 12:30N 35°58' W 005°27'2 1.0
2018-Jun-12 10:06N 35°57' W 005°29'216.6
2018-Jun-12 10:00N 35°58' W 005°29'714.8
2018-Jun-12 09:31N 36°04' W 005°23'4 1.0
2018-Jun-12 05:20N 36°08' W 005°26'0 0.0
2018-Jun-12 05:01N 36°08' W 005°26'0 0.0
2018-Jun-12 04:31N 36°08' W 005°26'0 0.0
2018-Jun-12 04:01N 36°08' W 005°26'0 0.0
2018-Jun-12 03:30N 36°08' W 005°26'0 0.0
2018-Jun-12 03:01N 36°08' W 005°26'0 0.0
2018-Jun-12 02:30N 36°08' W 005°26'0 0.0
2018-Jun-12 02:00N 36°08' W 005°26'0 0.0
2018-Jun-12 01:30N 36°08' W 005°26'0 0.7
2018-Jun-12 01:00N 36°08' W 005°26'0 0.8
2018-Jun-12 00:30N 36°08' W 005°26'5 9.0
2018-Jun-12 00:01N 36°05' W 005°23'917.7
2018-Jun-11 23:30N 35°57' W 005°27'2 0.9
2018-Jun-11 21:20N 35°56' W 005°30'514.9
2018-Jun-11 21:01N 35°60' W 005°26'815.5
2018-Jun-11 20:30N 36°08' W 005°24'2 2.7
2018-Jun-11 19:51N 36°08' W 005°26'0 0.0
2018-Jun-11 19:30N 36°08' W 005°26'0 0.0
2018-Jun-11 18:50N 36°08' W 005°26'0 1.2
2018-Jun-11 18:30N 36°08' W 005°26'4 7.9
2018-Jun-11 17:58N 36°05' W 005°23'818.6
2018-Jun-11 17:31N 35°57' W 005°27'2 0.7
2018-Jun-11 15:19N 35°57' W 005°29'514.1
2018-Jun-11 14:59N 36°00' W 005°26'8 0.9
2018-Jun-11 06:20N 36°08' W 005°26'2 5.8
2018-Jun-11 06:01N 36°07' W 005°24'918.3
2018-Jun-11 05:31N 35°58' W 005°26'4 1.8
2018-Jun-11 03:27N 35°56' W 005°30'613.1
2018-Jun-11 03:01N 36°00' W 005°25'815.5
2018-Jun-11 02:30N 36°08' W 005°24'2 1.3
2018-Jun-11 01:03N 36°08' W 005°26'0 1.9
2018-Jun-11 01:00N 36°08' W 005°26'2 3.6
2018-Jun-11 00:30N 36°08' W 005°24'917.8
2018-Jun-11 00:01N 35°59' W 005°25'4 1.7
2018-Jun-10 21:33N 35°57' W 005°29'116.7
2018-Jun-10 21:30N 35°57' W 005°29'815.3
2018-Jun-10 21:00N 36°04' W 005°24'4 1.8
2018-Jun-10 18:33N 36°08' W 005°26'0 7.7
2018-Jun-10 18:30N 36°08' W 005°26'611.4
2018-Jun-10 18:00N 36°03' W 005°23'8 2.8
2018-Jun-10 15:10N 35°57' W 005°29'214.4
2018-Jun-10 15:01N 35°59' W 005°28'714.9
2018-Jun-10 14:31N 36°06' W 005°24'3 1.6
2018-Jun-10 12:39N 36°08' W 005°26'1 7.3
2018-Jun-10 12:29N 36°09' W 005°26'715.5
2018-Jun-10 12:00N 36°02' W 005°24'7 2.8
2018-Jun-10 09:24N 35°56' W 005°29'615.1
2018-Jun-10 09:00N 36°01' W 005°26'814.3
2018-Jun-10 08:28N 36°09' W 005°26'1 1.5
2018-Jun-10 07:42N 36°08' W 005°26'0 0.0
2018-Jun-10 07:02N 36°08' W 005°26'0 0.9
2018-Jun-10 07:00N 36°08' W 005°26'2 3.3
2018-Jun-10 06:30N 36°08' W 005°24'817.4
2018-Jun-10 06:00N 35°59' W 005°25'5 2.1
2018-Jun-10 03:30N 35°56' W 005°30'713.4
2018-Jun-10 03:00N 36°01' W 005°24'815.8
2018-Jun-10 02:29N 36°09' W 005°25'1 1.0
2018-Jun-10 01:13N 36°08' W 005°26'1 4.8
2018-Jun-10 01:00N 36°09' W 005°26'611.5
2018-Jun-10 00:30N 36°04' W 005°23'1 0.3
2018-Jun-09 21:00N 36°02' W 005°23'610.5
2018-Jun-09 20:26N 36°08' W 005°26'0 0.1
2018-Jun-09 18:40N 36°08' W 005°26'1 6.5
2018-Jun-09 18:30N 36°09' W 005°26'612.9
2018-Jun-09 18:00N 36°03' W 005°23'3 0.9
2018-Jun-09 15:00N 36°01' W 005°26'815.4
2018-Jun-09 14:30N 36°09' W 005°25'1 1.9
2018-Jun-09 13:49N 36°08' W 005°26'0 0.0
2018-Jun-09 13:27N 36°08' W 005°26'0 0.0
2018-Jun-09 12:56N 36°08' W 005°26'1 3.3
2018-Jun-09 12:30N 36°09' W 005°25'816.3
2018-Jun-09 12:00N 36°01' W 005°25'6 2.3
2018-Jun-09 09:21N 35°56' W 005°30'516.1
2018-Jun-09 09:00N 36°01' W 005°26'815.6
2018-Jun-09 08:30N 36°09' W 005°25'1 0.5
2018-Jun-09 06:17N 36°08' W 005°26'2 5.7
2018-Jun-09 06:00N 36°08' W 005°24'918.1
2018-Jun-09 05:30N 35°59' W 005°25'3 1.4
2018-Jun-09 03:11N 35°58' W 005°29'314.6
2018-Jun-09 03:00N 35°60' W 005°26'815.0
2018-Jun-09 02:27N 36°08' W 005°24'  
Track history (hours):
 
Tides and Currents Weather Stations Pressure Air Temp Water Temp Dewpoint Dewpoint Depression Visibility Wind Speed Wind Dir Waves Ship Positions

Poeta Lopez Anglada

Last reported at 2018-Jun-19 00:55 UTC. Time now 2018-Jun-20 20:56 UTC.
Position N 36°08' W 005°26'.

Length 134 m; draft 4.5 m.

Type: Passenger vessel. MMSI: 225409000.

Date/timePositionNaut miles runAvg speedWind from/ knotsBaromVisibWave heightAir tempDewpointWater temp
2018-Jun-19 00:55N 36°08' W 005°26'1 2.4
2018-Jun-19 00:29N 36°09' W 005°26'612.3
2018-Jun-19 00:00N 36°04' W 005°23'9 3.9
2018-Jun-18 21:35N 35°57' W 005°30'213.7
2018-Jun-18 21:27N 35°58' W 005°29'614.1
2018-Jun-18 21:00N 36°02' W 005°23'6 4.1
2018-Jun-18 19:32N 36°08' W 005°26'0 4.5
2018-Jun-18 19:30N 36°08' W 005°26'3 6.7
2018-Jun-18 19:00N 36°06' W 005°23'917.9
2018-Jun-18 18:30N 35°58' W 005°27'2 0.7
2018-Jun-18 15:12N 35°57' W 005°29'416.4
2018-Jun-18 14:59N 35°60' W 005°26'7 2.4
2018-Jun-18 12:13N 36°06' W 005°24'417.2
2018-Jun-18 12:00N 36°02' W 005°24'7 2.3
2018-Jun-18 09:10N 35°57' W 005°29'215.6
2018-Jun-18 09:01N 35°59' W 005°28'7 2.5
2018-Jun-18 06:03N 36°06' W 005°23'118.2
2018-Jun-18 06:00N 36°05' W 005°23'917.5
2018-Jun-18 05:30N 35°57' W 005°28'5 2.5
2018-Jun-18 03:37N 35°53' W 005°31'315.5
2018-Jun-18 03:25N 35°56' W 005°30'716.9
2018-Jun-18 03:00N 36°02' W 005°25'6 4.9
2018-Jun-18 01:47N 36°08' W 005°26'1 5.1
2018-Jun-18 01:29N 36°09' W 005°25'714.9
2018-Jun-18 01:01N 36°02' W 005°24'1017.1
2018-Jun-18 00:27N 35°54' W 005°31'3 1.1
2018-Jun-17 21:47N 35°57' W 005°29'412.8
2018-Jun-17 21:30N 35°59' W 005°26'612.7
2018-Jun-17 21:00N 36°05' W 005°23'4 1.4
2018-Jun-17 18:24N 36°08' W 005°26'3 5.6
2018-Jun-17 17:51N 36°06' W 005°23'618.3
2018-Jun-17 17:30N 35°60' W 005°25'5 2.4
2018-Jun-17 15:29N 35°56' W 005°29'816.7
2018-Jun-17 15:00N 36°03' W 005°24'5 9.6
2018-Jun-17 14:30N 36°08' W 005°26'0 0.1
2018-Jun-17 12:52N 36°08' W 005°26'1 4.1
2018-Jun-17 12:30N 36°09' W 005°25'816.3
2018-Jun-17 12:00N 36°01' W 005°24'6 2.3
2018-Jun-17 09:14N 35°57' W 005°29'415.8
2018-Jun-17 09:00N 35°60' W 005°27'816.1
2018-Jun-17 08:30N 36°07' W 005°24'2 0.9
2018-Jun-17 06:33N 36°08' W 005°26'0 8.1
2018-Jun-17 06:30N 36°08' W 005°26'611.4
2018-Jun-17 06:00N 36°03' W 005°23'816.9
2018-Jun-17 05:30N 35°56' W 005°28'3 1.8
2018-Jun-17 03:35N 35°54' W 005°31'317.5
2018-Jun-17 03:25N 35°57' W 005°31'716.6
2018-Jun-17 03:00N 36°02' W 005°25'714.8
2018-Jun-17 02:31N 36°09' W 005°26'1 0.8
2018-Jun-17 01:07N 36°08' W 005°26'0 3.0
2018-Jun-17 01:00N 36°08' W 005°26'2 3.2
2018-Jun-17 00:30N 36°09' W 005°24'714.7
2018-Jun-17 00:00N 36°01' W 005°25'917.7
2018-Jun-16 23:30N 35°54' W 005°31'1 0.4
2018-Jun-16 21:45N 35°54' W 005°31'2 6.3
2018-Jun-16 21:29N 35°56' W 005°30'714.0
2018-Jun-16 21:00N 36°01' W 005°25'815.3
2018-Jun-16 20:30N 36°09' W 005°25'1 1.0
2018-Jun-16 19:17N 36°08' W 005°26'2 4.1
2018-Jun-16 18:53N 36°08' W 005°24'717.1
2018-Jun-16 18:30N 36°02' W 005°24'10 3.3
2018-Jun-16 15:34N 35°54' W 005°31'3 8.5
2018-Jun-16 15:16N 35°56' W 005°30'416.7
2018-Jun-16 15:00N 35°60' W 005°27'6 2.2
2018-Jun-16 12:12N 36°05' W 005°23'316.8
2018-Jun-16 12:00N 36°02' W 005°24'7 3.2
2018-Jun-16 09:52N 35°56' W 005°29'615.4
2018-Jun-16 09:29N 36°02' W 005°25'6 4.6
2018-Jun-16 08:04N 36°08' W 005°26'2 5.9
2018-Jun-16 07:47N 36°08' W 005°24'517.8
2018-Jun-16 07:30N 36°02' W 005°24'10 5.4
2018-Jun-16 05:43N 35°55' W 005°30'316.6
2018-Jun-16 05:31N 35°58' W 005°29'815.8
2018-Jun-16 05:01N 36°05' W 005°24'4 7.8
2018-Jun-16 04:30N 36°08' W 005°26'0 0.5
2018-Jun-16 03:59N 36°08' W 005°26'2 3.7
2018-Jun-16 03:29N 36°09' W 005°24'1 2.0
2018-Jun-16 03:01N 36°08' W 005°24'3 5.7
2018-Jun-16 02:30N 36°05' W 005°23'817.0
2018-Jun-16 02:00N 35°57' W 005°27'3 1.9
2018-Jun-16 00:13N 35°56' W 005°31'416.3
2018-Jun-16 00:00N 35°59' W 005°28'816.0
2018-Jun-15 23:30N 36°06' W 005°24'3 5.4
2018-Jun-15 23:00N 36°08' W 005°26'0 0.1
2018-Jun-15 22:19N 36°08' W 005°26'0 0.0
2018-Jun-15 22:00N 36°08' W 005°26'1 1.2
2018-Jun-15 21:31N 36°08' W 005°26'1 2.9
2018-Jun-15 21:00N 36°08' W 005°24'1 1.5
2018-Jun-15 20:30N 36°08' W 005°24'4 7.7
2018-Jun-15 20:00N 36°04' W 005°24'1019.6
2018-Jun-15 19:29N 35°55' W 005°30'2 0.8
2018-Jun-15 17:33N 35°54' W 005°31'3 2.2
2018-Jun-15 15:56N 35°57' W 005°29'614.6
2018-Jun-15 15:29N 36°02' W 005°23'7 3.4
2018-Jun-15 13:29N 36°08' W 005°24'817.2
2018-Jun-15 13:00N 36°00' W 005°24'6 1.6
2018-Jun-15 09:28N 35°56' W 005°30'715.5
2018-Jun-15 09:01N 36°02' W 005°25'4 1.4
2018-Jun-15 06:23N 36°06' W 005°23'717.8
2018-Jun-15 06:00N 35°59' W 005°25'7 3.0
2018-Jun-15 03:32N 35°54' W 005°31'2 8.4
2018-Jun-15 03:14N 35°56' W 005°30'415.9
2018-Jun-15 03:01N 35°59' W 005°28'714.8
2018-Jun-15 02:31N 36°06' W 005°24'3 5.3
2018-Jun-15 02:01N 36°08' W 005°26'0 0.0
2018-Jun-15 01:30N 36°08' W 005°26'0 0.0
2018-Jun-15 01:00N 36°08' W 005°26'2 3.5
2018-Jun-15 00:31N 36°08' W 005°24'917.5
2018-Jun-15 00:00N 35°60' W 005°24'5 1.7
2018-Jun-14 21:21N 35°57' W 005°29'514.5
2018-Jun-14 21:00N 36°01' W 005°25'714.4
2018-Jun-14 20:30N 36°09' W 005°25'1 2.6
2018-Jun-14 20:00N 36°08' W 005°26'0 0.0
2018-Jun-14 19:29N 36°08' W 005°26'0 0.4
2018-Jun-14 18:42N 36°08' W 005°26'2 5.5
2018-Jun-14 18:18N 36°07' W 005°23'414.1
2018-Jun-14 18:00N 36°03' W 005°23'8 3.1
2018-Jun-14 15:19N 35°57' W 005°29'514.8
2018-Jun-14 15:00N 36°00' W 005°26'714.2
2018-Jun-14 14:31N 36°07' W 005°24'2 0.9
2018-Jun-14 12:37N 36°08' W 005°26'3 7.6
2018-Jun-14 12:14N 36°06' W 005°24'417.7
2018-Jun-14 12:01N 36°02' W 005°24'6 2.3
2018-Jun-14 09:18N 35°57' W 005°29'414.7
2018-Jun-14 09:00N 36°01' W 005°26'4 1.4
2018-Jun-14 06:14N 36°03' W 005°22'418.6
2018-Jun-14 06:00N 35°59' W 005°24'5 2.4
2018-Jun-14 03:44N 35°56' W 005°30'415.1
2018-Jun-14 03:30N 35°59' W 005°28'714.6
2018-Jun-14 03:00N 36°06' W 005°23'3 6.2
2018-Jun-14 02:30N 36°08' W 005°26'0 0.0
2018-Jun-14 02:00N 36°08' W 005°26'1 2.6
2018-Jun-14 01:30N 36°09' W 005°25'613.3
2018-Jun-14 01:00N 36°03' W 005°24'8 2.7
2018-Jun-13 21:55N 35°56' W 005°31'614.6
2018-Jun-13 21:30N 36°01' W 005°26'714.9
2018-Jun-13 21:00N 36°08' W 005°24'1 0.5
2018-Jun-13 18:22N 36°07' W 005°24'718.5
2018-Jun-13 18:00N 36°00' W 005°24'5 2.2
2018-Jun-13 15:36N 35°57' W 005°29'115.1
2018-Jun-13 15:30N 35°58' W 005°29'713.8
2018-Jun-13 15:00N 36°04' W 005°24'4 1.8
2018-Jun-13 12:36N 36°08' W 005°26'0 1.6
2018-Jun-13 12:31N 36°08' W 005°26'4 8.4
2018-Jun-13 12:01N 36°04' W 005°24'9 3.2
2018-Jun-13 09:19N 35°57' W 005°29'614.9
2018-Jun-13 08:53N 36°02' W 005°25'5 1.9
2018-Jun-13 06:07N 36°08' W 005°24'217.2
2018-Jun-13 06:00N 36°06' W 005°23'918.6
2018-Jun-13 05:30N 35°57' W 005°27'5 3.8
2018-Jun-13 04:08N 35°53' W 005°31'1 4.8
2018-Jun-13 03:56N 35°54' W 005°31'1 2.4
2018-Jun-13 03:28N 35°55' W 005°30'613.7
2018-Jun-13 03:01N 35°60' W 005°26'714.1
2018-Jun-13 02:30N 36°07' W 005°24'2 4.3
2018-Jun-13 01:59N 36°08' W 005°26'0 0.0
2018-Jun-13 01:30N 36°08' W 005°26'0 0.1
2018-Jun-13 01:00N 36°08' W 005°26'2 3.6
2018-Jun-13 00:30N 36°08' W 005°24'817.3
2018-Jun-13 00:00N 35°60' W 005°25'5 1.9
2018-Jun-12 21:22N 35°56' W 005°30'515.2
2018-Jun-12 21:00N 36°01' W 005°26'815.3
2018-Jun-12 20:30N 36°08' W 005°25'3 1.4
2018-Jun-12 18:18N 36°05' W 005°23'619.5
2018-Jun-12 18:00N 35°60' W 005°25'4 1.8
2018-Jun-12 15:45N 35°57' W 005°29'313.6
2018-Jun-12 15:30N 36°00' W 005°27'5 1.8
2018-Jun-12 12:54N 36°04' W 005°24'717.8
2018-Jun-12 12:30N 35°58' W 005°27'2 1.0
2018-Jun-12 10:06N 35°57' W 005°29'216.6
2018-Jun-12 10:00N 35°58' W 005°29'714.8
2018-Jun-12 09:31N 36°04' W 005°23'4 1.0
2018-Jun-12 05:20N 36°08' W 005°26'0 0.0
2018-Jun-12 05:01N 36°08' W 005°26'0 0.0
2018-Jun-12 04:31N 36°08' W 005°26'0 0.0
2018-Jun-12 04:01N 36°08' W 005°26'0 0.0
2018-Jun-12 03:30N 36°08' W 005°26'0 0.0
2018-Jun-12 03:01N 36°08' W 005°26'0 0.0
2018-Jun-12 02:30N 36°08' W 005°26'0 0.0
2018-Jun-12 02:00N 36°08' W 005°26'0 0.0
2018-Jun-12 01:30N 36°08' W 005°26'0 0.7
2018-Jun-12 01:00N 36°08' W 005°26'0 0.8
2018-Jun-12 00:30N 36°08' W 005°26'5 9.0
2018-Jun-12 00:01N 36°05' W 005°23'917.7
2018-Jun-11 23:30N 35°57' W 005°27'2 0.9
2018-Jun-11 21:20N 35°56' W 005°30'514.9
2018-Jun-11 21:01N 35°60' W 005°26'815.5
2018-Jun-11 20:30N 36°08' W 005°24'2 2.7
2018-Jun-11 19:51N 36°08' W 005°26'0 0.0
2018-Jun-11 19:30N 36°08' W 005°26'0 0.0
2018-Jun-11 18:50N 36°08' W 005°26'0 1.2
2018-Jun-11 18:30N 36°08' W 005°26'4 7.9
2018-Jun-11 17:58N 36°05' W 005°23'818.6
2018-Jun-11 17:31N 35°57' W 005°27'2 0.7
2018-Jun-11 15:19N 35°57' W 005°29'514.1
2018-Jun-11 14:59N 36°00' W 005°26'8 0.9
2018-Jun-11 06:20N 36°08' W 005°26'2 5.8
2018-Jun-11 06:01N 36°07' W 005°24'918.3
2018-Jun-11 05:31N 35°58' W 005°26'4 1.8
2018-Jun-11 03:27N 35°56' W 005°30'613.1
2018-Jun-11 03:01N 36°00' W 005°25'815.5
2018-Jun-11 02:30N 36°08' W 005°24'2 1.3
2018-Jun-11 01:03N 36°08' W 005°26'0 1.9
2018-Jun-11 01:00N 36°08' W 005°26'2 3.6
2018-Jun-11 00:30N 36°08' W 005°24'917.8
2018-Jun-11 00:01N 35°59' W 005°25'4 1.7
2018-Jun-10 21:33N 35°57' W 005°29'116.7
2018-Jun-10 21:30N 35°57' W 005°29'815.3
2018-Jun-10 21:00N 36°04' W 005°24'4 1.8
2018-Jun-10 18:33N 36°08' W 005°26'0 7.7
2018-Jun-10 18:30N 36°08' W 005°26'611.4
2018-Jun-10 18:00N 36°03' W 005°23'8 2.8
2018-Jun-10 15:10N 35°57' W 005°29'214.4
2018-Jun-10 15:01N 35°59' W 005°28'714.9
2018-Jun-10 14:31N 36°06' W 005°24'3 1.6
2018-Jun-10 12:39N 36°08' W 005°26'1 7.3
2018-Jun-10 12:29N 36°09' W 005°26'715.5
2018-Jun-10 12:00N 36°02' W 005°24'7 2.8
2018-Jun-10 09:24N 35°56' W 005°29'615.1
2018-Jun-10 09:00N 36°01' W 005°26'814.3
2018-Jun-10 08:28N 36°09' W 005°26'1 1.5
2018-Jun-10 07:42N 36°08' W 005°26'0 0.0
2018-Jun-10 07:02N 36°08' W 005°26'0 0.9
2018-Jun-10 07:00N 36°08' W 005°26'2 3.3
2018-Jun-10 06:30N 36°08' W 005°24'817.4
2018-Jun-10 06:00N 35°59' W 005°25'5 2.1
2018-Jun-10 03:30N 35°56' W 005°30'713.4
2018-Jun-10 03:00N 36°01' W 005°24'815.8
2018-Jun-10 02:29N 36°09' W 005°25'1 1.0
2018-Jun-10 01:13N 36°08' W 005°26'1 4.8
2018-Jun-10 01:00N 36°09' W 005°26'611.5
2018-Jun-10 00:30N 36°04' W 005°23'1 0.3
2018-Jun-09 21:00N 36°02' W 005°23'610.5
2018-Jun-09 20:26N 36°08' W 005°26'0 0.1
2018-Jun-09 18:40N 36°08' W 005°26'1 6.5
2018-Jun-09 18:30N 36°09' W 005°26'612.9
2018-Jun-09 18:00N 36°03' W 005°23'3 0.9
2018-Jun-09 15:00N 36°01' W 005°26'815.4
2018-Jun-09 14:30N 36°09' W 005°25'1 1.9
2018-Jun-09 13:49N 36°08' W 005°26'0 0.0
2018-Jun-09 13:27N 36°08' W 005°26'0 0.0
2018-Jun-09 12:56N 36°08' W 005°26'1 3.3
2018-Jun-09 12:30N 36°09' W 005°25'816.3
2018-Jun-09 12:00N 36°01' W 005°25'6 2.3
2018-Jun-09 09:21N 35°56' W 005°30'516.1
2018-Jun-09 09:00N 36°01' W 005°26'815.6
2018-Jun-09 08:30N 36°09' W 005°25'1 0.5
2018-Jun-09 06:17N 36°08' W 005°26'2 5.7
2018-Jun-09 06:00N 36°08' W 005°24'918.1
2018-Jun-09 05:30N 35°59' W 005°25'3 1.4
2018-Jun-09 03:11N 35°58' W 005°29'314.6
2018-Jun-09 03:00N 35°60' W 005°26'815.0
2018-Jun-09 02:27N 36°08' W 005°24'  

Dump ship's entire track history